sensor_id;sensor_type;location;lat;lon;timestamp;P1;durP1;ratioP1;P2;durP2;ratioP2
47715;SDS011;33476;50.984;3.538;2022-10-16T00:01:14;0.30;;;0.03;;
47715;SDS011;33476;50.984;3.538;2022-10-16T00:03:41;1.83;;;0.10;;
47715;SDS011;33476;50.984;3.538;2022-10-16T00:06:09;1.65;;;0.10;;
47715;SDS011;33476;50.984;3.538;2022-10-16T00:08:35;0.65;;;0.00;;
47715;SDS011;33476;50.984;3.538;2022-10-16T00:11:11;0.30;;;0.00;;
47715;SDS011;33476;50.984;3.538;2022-10-16T00:13:40;0.50;;;0.00;;
47715;SDS011;33476;50.984;3.538;2022-10-16T00:16:07;0.50;;;0.00;;
47715;SDS011;33476;50.984;3.538;2022-10-16T00:18:33;0.30;;;0.00;;
47715;SDS011;33476;50.984;3.538;2022-10-16T00:21:03;0.15;;;0.00;;
47715;SDS011;33476;50.984;3.538;2022-10-16T00:23:30;1.00;;;0.10;;
47715;SDS011;33476;50.984;3.538;2022-10-16T00:26:00;1.25;;;0.10;;
47715;SDS011;33476;50.984;3.538;2022-10-16T00:28:27;0.63;;;0.10;;
47715;SDS011;33476;50.984;3.538;2022-10-16T00:30:53;0.38;;;0.10;;
47715;SDS011;33476;50.984;3.538;2022-10-16T00:33:19;0.25;;;0.10;;
47715;SDS011;33476;50.984;3.538;2022-10-16T00:35:45;0.82;;;0.10;;
47715;SDS011;33476;50.984;3.538;2022-10-16T00:38:10;0.45;;;0.10;;
47715;SDS011;33476;50.984;3.538;2022-10-16T00:40:36;1.55;;;0.03;;
47715;SDS011;33476;50.984;3.538;2022-10-16T00:43:01;0.50;;;0.10;;
47715;SDS011;33476;50.984;3.538;2022-10-16T00:45:28;1.23;;;0.20;;
47715;SDS011;33476;50.984;3.538;2022-10-16T00:47:54;2.63;;;0.10;;
47715;SDS011;33476;50.984;3.538;2022-10-16T00:52:47;1.15;;;0.15;;
47715;SDS011;33476;50.984;3.538;2022-10-16T00:55:15;2.30;;;0.10;;
47715;SDS011;33476;50.984;3.538;2022-10-16T00:57:41;0.22;;;0.10;;
47715;SDS011;33476;50.984;3.538;2022-10-16T01:00:09;1.95;;;0.10;;
47715;SDS011;33476;50.984;3.538;2022-10-16T01:02:37;0.25;;;0.10;;
47715;SDS011;33476;50.984;3.538;2022-10-16T01:05:02;2.67;;;0.10;;
47715;SDS011;33476;50.984;3.538;2022-10-16T01:12:51;1.48;;;0.17;;
47715;SDS011;33476;50.984;3.538;2022-10-16T01:15:44;1.07;;;0.10;;
47715;SDS011;33476;50.984;3.538;2022-10-16T01:18:32;0.93;;;0.08;;
47715;SDS011;33476;50.984;3.538;2022-10-16T01:21:06;0.57;;;0.10;;
47715;SDS011;33476;50.984;3.538;2022-10-16T01:29:21;1.48;;;0.10;;
47715;SDS011;33476;50.984;3.538;2022-10-16T01:31:49;1.30;;;0.10;;
47715;SDS011;33476;50.984;3.538;2022-10-16T01:34:25;1.85;;;0.10;;
47715;SDS011;33476;50.984;3.538;2022-10-16T01:37:13;0.68;;;0.10;;
47715;SDS011;33476;50.984;3.538;2022-10-16T01:39:45;2.53;;;0.20;;
47715;SDS011;33476;50.984;3.538;2022-10-16T01:42:16;1.42;;;0.10;;
47715;SDS011;33476;50.984;3.538;2022-10-16T01:44:46;1.90;;;0.13;;
47715;SDS011;33476;50.984;3.538;2022-10-16T01:47:13;0.75;;;0.10;;
47715;SDS011;33476;50.984;3.538;2022-10-16T01:49:40;0.85;;;0.10;;
47715;SDS011;33476;50.984;3.538;2022-10-16T01:52:12;1.55;;;0.10;;
47715;SDS011;33476;50.984;3.538;2022-10-16T01:54:42;0.85;;;0.10;;
47715;SDS011;33476;50.984;3.538;2022-10-16T01:57:11;0.47;;;0.00;;
47715;SDS011;33476;50.984;3.538;2022-10-16T01:59:43;1.95;;;0.20;;
47715;SDS011;33476;50.984;3.538;2022-10-16T02:02:11;2.50;;;0.10;;
47715;SDS011;33476;50.984;3.538;2022-10-16T02:04:47;1.48;;;0.20;;
47715;SDS011;33476;50.984;3.538;2022-10-16T02:07:18;1.02;;;0.20;;
47715;SDS011;33476;50.984;3.538;2022-10-16T02:09:43;0.40;;;0.10;;
47715;SDS011;33476;50.984;3.538;2022-10-16T02:12:13;1.85;;;0.15;;
47715;SDS011;33476;50.984;3.538;2022-10-16T02:14:52;0.68;;;0.10;;
47715;SDS011;33476;50.984;3.538;2022-10-16T02:17:18;2.08;;;0.10;;
47715;SDS011;33476;50.984;3.538;2022-10-16T02:19:44;1.13;;;0.10;;
47715;SDS011;33476;50.984;3.538;2022-10-16T02:22:19;0.45;;;0.10;;
47715;SDS011;33476;50.984;3.538;2022-10-16T02:24:59;1.02;;;0.30;;
47715;SDS011;33476;50.984;3.538;2022-10-16T02:30:06;2.92;;;0.10;;
47715;SDS011;33476;50.984;3.538;2022-10-16T02:32:37;2.30;;;0.10;;
47715;SDS011;33476;50.984;3.538;2022-10-16T02:35:06;1.70;;;0.20;;
47715;SDS011;33476;50.984;3.538;2022-10-16T02:37:33;0.95;;;0.10;;
47715;SDS011;33476;50.984;3.538;2022-10-16T02:40:00;2.20;;;0.30;;
47715;SDS011;33476;50.984;3.538;2022-10-16T02:42:27;0.77;;;0.17;;
47715;SDS011;33476;50.984;3.538;2022-10-16T02:45:04;2.20;;;0.20;;
47715;SDS011;33476;50.984;3.538;2022-10-16T02:47:30;1.33;;;0.20;;
47715;SDS011;33476;50.984;3.538;2022-10-16T02:49:55;1.08;;;0.10;;
47715;SDS011;33476;50.984;3.538;2022-10-16T02:52:21;2.33;;;0.30;;
47715;SDS011;33476;50.984;3.538;2022-10-16T02:54:46;1.58;;;0.28;;
47715;SDS011;33476;50.984;3.538;2022-10-16T02:57:11;4.88;;;0.20;;
47715;SDS011;33476;50.984;3.538;2022-10-16T02:59:37;3.00;;;0.10;;
47715;SDS011;33476;50.984;3.538;2022-10-16T03:02:02;1.98;;;0.20;;
47715;SDS011;33476;50.984;3.538;2022-10-16T03:04:28;3.38;;;0.10;;
47715;SDS011;33476;50.984;3.538;2022-10-16T03:06:53;2.00;;;0.10;;
47715;SDS011;33476;50.984;3.538;2022-10-16T03:09:18;1.73;;;0.10;;
47715;SDS011;33476;50.984;3.538;2022-10-16T03:11:44;3.75;;;0.10;;
47715;SDS011;33476;50.984;3.538;2022-10-16T03:14:09;3.60;;;0.17;;
47715;SDS011;33476;50.984;3.538;2022-10-16T03:16:34;1.25;;;0.20;;
47715;SDS011;33476;50.984;3.538;2022-10-16T03:19:00;1.85;;;0.10;;
47715;SDS011;33476;50.984;3.538;2022-10-16T03:21:25;1.17;;;0.17;;
47715;SDS011;33476;50.984;3.538;2022-10-16T03:23:50;0.60;;;0.22;;
47715;SDS011;33476;50.984;3.538;2022-10-16T03:26:15;2.50;;;0.20;;
47715;SDS011;33476;50.984;3.538;2022-10-16T03:28:41;3.22;;;0.30;;
47715;SDS011;33476;50.984;3.538;2022-10-16T03:31:06;1.50;;;0.20;;
47715;SDS011;33476;50.984;3.538;2022-10-16T03:33:31;2.15;;;0.20;;
47715;SDS011;33476;50.984;3.538;2022-10-16T03:35:57;2.17;;;0.30;;
47715;SDS011;33476;50.984;3.538;2022-10-16T03:38:23;0.90;;;0.17;;
47715;SDS011;33476;50.984;3.538;2022-10-16T03:40:48;1.85;;;0.10;;
47715;SDS011;33476;50.984;3.538;2022-10-16T03:43:14;1.27;;;0.20;;
47715;SDS011;33476;50.984;3.538;2022-10-16T03:45:39;1.60;;;0.20;;
47715;SDS011;33476;50.984;3.538;2022-10-16T03:48:04;0.40;;;0.10;;
47715;SDS011;33476;50.984;3.538;2022-10-16T03:50:30;3.03;;;0.20;;
47715;SDS011;33476;50.984;3.538;2022-10-16T03:52:56;2.00;;;0.28;;
47715;SDS011;33476;50.984;3.538;2022-10-16T03:55:21;3.40;;;0.20;;
47715;SDS011;33476;50.984;3.538;2022-10-16T03:57:46;1.20;;;0.20;;
47715;SDS011;33476;50.984;3.538;2022-10-16T04:00:12;3.50;;;0.22;;
47715;SDS011;33476;50.984;3.538;2022-10-16T04:02:38;1.73;;;0.15;;
47715;SDS011;33476;50.984;3.538;2022-10-16T04:05:04;2.15;;;0.28;;
47715;SDS011;33476;50.984;3.538;2022-10-16T04:07:29;0.73;;;0.20;;
47715;SDS011;33476;50.984;3.538;2022-10-16T04:09:55;1.95;;;0.30;;
47715;SDS011;33476;50.984;3.538;2022-10-16T04:12:22;2.38;;;0.20;;
47715;SDS011;33476;50.984;3.538;2022-10-16T04:14:47;2.88;;;0.28;;
47715;SDS011;33476;50.984;3.538;2022-10-16T04:17:12;1.92;;;0.43;;
47715;SDS011;33476;50.984;3.538;2022-10-16T04:19:38;2.67;;;0.30;;
47715;SDS011;33476;50.984;3.538;2022-10-16T04:22:03;1.08;;;0.20;;
47715;SDS011;33476;50.984;3.538;2022-10-16T04:24:29;1.73;;;0.20;;
47715;SDS011;33476;50.984;3.538;2022-10-16T04:26:54;0.68;;;0.10;;
47715;SDS011;33476;50.984;3.538;2022-10-16T04:29:19;3.20;;;0.20;;
47715;SDS011;33476;50.984;3.538;2022-10-16T04:31:45;1.40;;;0.28;;
47715;SDS011;33476;50.984;3.538;2022-10-16T04:34:10;2.58;;;0.40;;
47715;SDS011;33476;50.984;3.538;2022-10-16T04:36:35;1.15;;;0.20;;
47715;SDS011;33476;50.984;3.538;2022-10-16T04:39:00;0.70;;;0.10;;
47715;SDS011;33476;50.984;3.538;2022-10-16T04:41:26;1.30;;;0.30;;
47715;SDS011;33476;50.984;3.538;2022-10-16T04:43:51;1.45;;;0.13;;
47715;SDS011;33476;50.984;3.538;2022-10-16T04:46:16;1.85;;;0.40;;
47715;SDS011;33476;50.984;3.538;2022-10-16T04:48:42;4.32;;;0.20;;
47715;SDS011;33476;50.984;3.538;2022-10-16T04:51:07;1.58;;;0.20;;
47715;SDS011;33476;50.984;3.538;2022-10-16T04:53:32;1.02;;;0.20;;
47715;SDS011;33476;50.984;3.538;2022-10-16T04:55:58;6.05;;;0.20;;
47715;SDS011;33476;50.984;3.538;2022-10-16T04:58:23;2.70;;;0.40;;
47715;SDS011;33476;50.984;3.538;2022-10-16T05:00:49;0.90;;;0.10;;
47715;SDS011;33476;50.984;3.538;2022-10-16T05:03:14;2.45;;;0.20;;
47715;SDS011;33476;50.984;3.538;2022-10-16T05:05:43;4.65;;;0.40;;
47715;SDS011;33476;50.984;3.538;2022-10-16T05:08:09;4.60;;;0.30;;
47715;SDS011;33476;50.984;3.538;2022-10-16T05:10:35;2.75;;;0.20;;
47715;SDS011;33476;50.984;3.538;2022-10-16T05:13:01;2.17;;;0.55;;
47715;SDS011;33476;50.984;3.538;2022-10-16T05:15:26;5.78;;;0.20;;
47715;SDS011;33476;50.984;3.538;2022-10-16T05:17:52;3.35;;;0.22;;
47715;SDS011;33476;50.984;3.538;2022-10-16T05:20:19;1.92;;;0.20;;
47715;SDS011;33476;50.984;3.538;2022-10-16T05:22:44;1.55;;;0.30;;
47715;SDS011;33476;50.984;3.538;2022-10-16T05:25:09;2.60;;;0.22;;
47715;SDS011;33476;50.984;3.538;2022-10-16T05:27:36;3.53;;;0.22;;
47715;SDS011;33476;50.984;3.538;2022-10-16T05:30:01;1.95;;;0.35;;
47715;SDS011;33476;50.984;3.538;2022-10-16T05:32:27;2.33;;;0.30;;
47715;SDS011;33476;50.984;3.538;2022-10-16T05:34:52;3.47;;;0.30;;
47715;SDS011;33476;50.984;3.538;2022-10-16T05:37:17;1.83;;;0.30;;
47715;SDS011;33476;50.984;3.538;2022-10-16T05:39:42;1.45;;;0.30;;
47715;SDS011;33476;50.984;3.538;2022-10-16T05:42:08;2.13;;;0.15;;
47715;SDS011;33476;50.984;3.538;2022-10-16T05:44:33;3.13;;;0.40;;
47715;SDS011;33476;50.984;3.538;2022-10-16T05:46:58;5.15;;;0.30;;
47715;SDS011;33476;50.984;3.538;2022-10-16T05:49:24;2.88;;;0.32;;
47715;SDS011;33476;50.984;3.538;2022-10-16T05:51:49;3.15;;;0.52;;
47715;SDS011;33476;50.984;3.538;2022-10-16T05:54:14;2.17;;;0.30;;
47715;SDS011;33476;50.984;3.538;2022-10-16T05:56:40;3.20;;;0.32;;
47715;SDS011;33476;50.984;3.538;2022-10-16T05:59:05;1.13;;;0.20;;
47715;SDS011;33476;50.984;3.538;2022-10-16T06:01:31;1.15;;;0.35;;
47715;SDS011;33476;50.984;3.538;2022-10-16T06:03:57;3.42;;;0.22;;
47715;SDS011;33476;50.984;3.538;2022-10-16T06:06:24;1.27;;;0.20;;
47715;SDS011;33476;50.984;3.538;2022-10-16T06:08:52;1.63;;;0.30;;
47715;SDS011;33476;50.984;3.538;2022-10-16T06:11:19;2.20;;;0.32;;
47715;SDS011;33476;50.984;3.538;2022-10-16T06:13:53;2.05;;;0.20;;
47715;SDS011;33476;50.984;3.538;2022-10-16T06:16:21;2.10;;;0.20;;
47715;SDS011;33476;50.984;3.538;2022-10-16T06:18:47;1.77;;;0.17;;
47715;SDS011;33476;50.984;3.538;2022-10-16T06:21:19;1.30;;;0.20;;
47715;SDS011;33476;50.984;3.538;2022-10-16T06:23:47;2.65;;;0.20;;
47715;SDS011;33476;50.984;3.538;2022-10-16T06:26:13;3.45;;;0.40;;
47715;SDS011;33476;50.984;3.538;2022-10-16T06:28:40;4.72;;;0.40;;
47715;SDS011;33476;50.984;3.538;2022-10-16T06:31:07;3.55;;;0.40;;
47715;SDS011;33476;50.984;3.538;2022-10-16T06:33:33;2.53;;;0.20;;
47715;SDS011;33476;50.984;3.538;2022-10-16T06:38:33;2.20;;;0.30;;
47715;SDS011;33476;50.984;3.538;2022-10-16T06:40:59;3.53;;;0.28;;
47715;SDS011;33476;50.984;3.538;2022-10-16T06:43:27;3.65;;;0.20;;
47715;SDS011;33476;50.984;3.538;2022-10-16T06:45:57;3.45;;;0.38;;
47715;SDS011;33476;50.984;3.538;2022-10-16T06:48:23;1.70;;;0.40;;
47715;SDS011;33476;50.984;3.538;2022-10-16T06:53:22;2.75;;;0.30;;
47715;SDS011;33476;50.984;3.538;2022-10-16T06:55:47;4.80;;;0.70;;
47715;SDS011;33476;50.984;3.538;2022-10-16T06:58:13;1.83;;;0.30;;
47715;SDS011;33476;50.984;3.538;2022-10-16T07:00:38;3.63;;;0.43;;
47715;SDS011;33476;50.984;3.538;2022-10-16T07:03:03;4.95;;;0.32;;
47715;SDS011;33476;50.984;3.538;2022-10-16T07:05:29;3.85;;;0.20;;
47715;SDS011;33476;50.984;3.538;2022-10-16T07:07:54;1.27;;;0.20;;
47715;SDS011;33476;50.984;3.538;2022-10-16T07:10:19;2.97;;;0.20;;
47715;SDS011;33476;50.984;3.538;2022-10-16T07:12:45;3.00;;;0.43;;
47715;SDS011;33476;50.984;3.538;2022-10-16T07:15:10;2.83;;;0.40;;
47715;SDS011;33476;50.984;3.538;2022-10-16T07:17:35;3.78;;;0.40;;
47715;SDS011;33476;50.984;3.538;2022-10-16T07:20:01;3.45;;;0.43;;
47715;SDS011;33476;50.984;3.538;2022-10-16T07:22:28;1.27;;;0.32;;
47715;SDS011;33476;50.984;3.538;2022-10-16T07:24:53;1.38;;;0.25;;
47715;SDS011;33476;50.984;3.538;2022-10-16T07:27:19;1.30;;;0.28;;
47715;SDS011;33476;50.984;3.538;2022-10-16T07:29:47;6.32;;;0.40;;
47715;SDS011;33476;50.984;3.538;2022-10-16T07:32:12;1.60;;;0.43;;
47715;SDS011;33476;50.984;3.538;2022-10-16T07:34:37;2.72;;;0.30;;
47715;SDS011;33476;50.984;3.538;2022-10-16T07:37:03;4.10;;;0.30;;
47715;SDS011;33476;50.984;3.538;2022-10-16T07:39:28;3.85;;;0.30;;
47715;SDS011;33476;50.984;3.538;2022-10-16T07:41:53;4.25;;;0.25;;
47715;SDS011;33476;50.984;3.538;2022-10-16T07:44:19;1.10;;;0.30;;
47715;SDS011;33476;50.984;3.538;2022-10-16T07:46:44;2.70;;;0.35;;
47715;SDS011;33476;50.984;3.538;2022-10-16T07:49:09;1.45;;;0.45;;
47715;SDS011;33476;50.984;3.538;2022-10-16T07:51:35;2.60;;;0.52;;
47715;SDS011;33476;50.984;3.538;2022-10-16T07:54:00;2.83;;;0.50;;
47715;SDS011;33476;50.984;3.538;2022-10-16T07:56:26;2.45;;;0.30;;
47715;SDS011;33476;50.984;3.538;2022-10-16T07:58:52;6.15;;;0.47;;
47715;SDS011;33476;50.984;3.538;2022-10-16T08:01:17;2.38;;;0.20;;
47715;SDS011;33476;50.984;3.538;2022-10-16T08:03:50;2.72;;;0.30;;
47715;SDS011;33476;50.984;3.538;2022-10-16T08:06:17;2.42;;;0.30;;
47715;SDS011;33476;50.984;3.538;2022-10-16T08:08:43;1.73;;;0.30;;
47715;SDS011;33476;50.984;3.538;2022-10-16T08:11:09;4.38;;;0.32;;
47715;SDS011;33476;50.984;3.538;2022-10-16T08:13:34;0.80;;;0.20;;
47715;SDS011;33476;50.984;3.538;2022-10-16T08:16:00;3.58;;;0.20;;
47715;SDS011;33476;50.984;3.538;2022-10-16T08:18:26;4.03;;;0.40;;
47715;SDS011;33476;50.984;3.538;2022-10-16T08:20:58;2.88;;;0.30;;
47715;SDS011;33476;50.984;3.538;2022-10-16T08:23:25;3.55;;;0.52;;
47715;SDS011;33476;50.984;3.538;2022-10-16T08:25:51;8.18;;;0.65;;
47715;SDS011;33476;50.984;3.538;2022-10-16T08:28:18;2.35;;;0.30;;
47715;SDS011;33476;50.984;3.538;2022-10-16T08:30:44;3.17;;;0.57;;
47715;SDS011;33476;50.984;3.538;2022-10-16T08:33:09;6.28;;;0.38;;
47715;SDS011;33476;50.984;3.538;2022-10-16T08:35:34;1.08;;;0.22;;
47715;SDS011;33476;50.984;3.538;2022-10-16T08:38:00;3.92;;;0.43;;
47715;SDS011;33476;50.984;3.538;2022-10-16T08:40:28;2.97;;;0.50;;
47715;SDS011;33476;50.984;3.538;2022-10-16T08:48:13;2.83;;;0.20;;
47715;SDS011;33476;50.984;3.538;2022-10-16T08:50:44;1.52;;;0.45;;
47715;SDS011;33476;50.984;3.538;2022-10-16T08:53:14;3.08;;;0.30;;
47715;SDS011;33476;50.984;3.538;2022-10-16T08:55:46;3.78;;;0.30;;
47715;SDS011;33476;50.984;3.538;2022-10-16T08:58:19;1.42;;;0.30;;
47715;SDS011;33476;50.984;3.538;2022-10-16T09:00:53;5.15;;;0.60;;
47715;SDS011;33476;50.984;3.538;2022-10-16T09:12:01;4.15;;;0.40;;
47715;SDS011;33476;50.984;3.538;2022-10-16T09:23:16;4.32;;;0.43;;
47715;SDS011;33476;50.984;3.538;2022-10-16T09:25:45;5.68;;;0.65;;
47715;SDS011;33476;50.984;3.538;2022-10-16T09:28:13;4.47;;;0.40;;
47715;SDS011;33476;50.984;3.538;2022-10-16T09:30:39;5.60;;;0.55;;
47715;SDS011;33476;50.984;3.538;2022-10-16T09:33:05;4.60;;;0.20;;
47715;SDS011;33476;50.984;3.538;2022-10-16T09:38:07;7.57;;;0.57;;
47715;SDS011;33476;50.984;3.538;2022-10-16T09:43:06;3.53;;;0.20;;
47715;SDS011;33476;50.984;3.538;2022-10-16T09:45:53;4.00;;;0.57;;
47715;SDS011;33476;50.984;3.538;2022-10-16T09:48:47;4.90;;;0.40;;
47715;SDS011;33476;50.984;3.538;2022-10-16T09:51:23;4.95;;;0.20;;
47715;SDS011;33476;50.984;3.538;2022-10-16T09:56:35;4.70;;;0.57;;
47715;SDS011;33476;50.984;3.538;2022-10-16T09:59:10;5.15;;;0.40;;
47715;SDS011;33476;50.984;3.538;2022-10-16T10:01:52;7.55;;;0.60;;
47715;SDS011;33476;50.984;3.538;2022-10-16T10:04:20;3.38;;;0.10;;
47715;SDS011;33476;50.984;3.538;2022-10-16T10:09:34;3.33;;;0.40;;
47715;SDS011;33476;50.984;3.538;2022-10-16T10:12:16;3.92;;;0.38;;
47715;SDS011;33476;50.984;3.538;2022-10-16T10:14:47;7.22;;;0.40;;
47715;SDS011;33476;50.984;3.538;2022-10-16T10:17:16;4.95;;;0.40;;
47715;SDS011;33476;50.984;3.538;2022-10-16T10:19:53;6.13;;;0.32;;
47715;SDS011;33476;50.984;3.538;2022-10-16T10:30:47;5.65;;;0.60;;
47715;SDS011;33476;50.984;3.538;2022-10-16T10:33:18;8.60;;;0.57;;
47715;SDS011;33476;50.984;3.538;2022-10-16T10:36:07;6.68;;;0.65;;
47715;SDS011;33476;50.984;3.538;2022-10-16T10:38:50;3.30;;;0.38;;
47715;SDS011;33476;50.984;3.538;2022-10-16T10:44:30;4.97;;;0.20;;
47715;SDS011;33476;50.984;3.538;2022-10-16T10:50:22;7.20;;;0.52;;
47715;SDS011;33476;50.984;3.538;2022-10-16T11:03:43;5.22;;;0.40;;
47715;SDS011;33476;50.984;3.538;2022-10-16T11:06:34;4.78;;;0.30;;
47715;SDS011;33476;50.984;3.538;2022-10-16T11:11:45;4.45;;;0.50;;
47715;SDS011;33476;50.984;3.538;2022-10-16T11:14:38;3.08;;;0.30;;
47715;SDS011;33476;50.984;3.538;2022-10-16T11:17:15;6.22;;;0.35;;
47715;SDS011;33476;50.984;3.538;2022-10-16T11:22:20;5.47;;;0.40;;
47715;SDS011;33476;50.984;3.538;2022-10-16T11:27:49;2.05;;;0.32;;
47715;SDS011;33476;50.984;3.538;2022-10-16T11:35:32;4.78;;;0.30;;
47715;SDS011;33476;50.984;3.538;2022-10-16T11:40:54;5.07;;;0.28;;
47715;SDS011;33476;50.984;3.538;2022-10-16T11:43:26;1.42;;;0.20;;
47715;SDS011;33476;50.984;3.538;2022-10-16T11:45:57;5.65;;;0.30;;
47715;SDS011;33476;50.984;3.538;2022-10-16T11:51:10;4.10;;;0.38;;
47715;SDS011;33476;50.984;3.538;2022-10-16T11:57:01;5.50;;;0.25;;
47715;SDS011;33476;50.984;3.538;2022-10-16T11:59:43;7.47;;;0.50;;
47715;SDS011;33476;50.984;3.538;2022-10-16T12:07:50;2.90;;;0.20;;
47715;SDS011;33476;50.984;3.538;2022-10-16T12:10:41;3.70;;;0.32;;
47715;SDS011;33476;50.984;3.538;2022-10-16T12:13:28;4.28;;;0.30;;
47715;SDS011;33476;50.984;3.538;2022-10-16T12:16:04;5.43;;;0.30;;
47715;SDS011;33476;50.984;3.538;2022-10-16T12:18:42;4.35;;;0.17;;
47715;SDS011;33476;50.984;3.538;2022-10-16T12:21:10;2.65;;;0.20;;
47715;SDS011;33476;50.984;3.538;2022-10-16T12:23:45;1.90;;;0.20;;
47715;SDS011;33476;50.984;3.538;2022-10-16T12:26:13;4.30;;;0.40;;
47715;SDS011;33476;50.984;3.538;2022-10-16T12:28:38;3.83;;;0.52;;
47715;SDS011;33476;50.984;3.538;2022-10-16T12:31:06;1.98;;;0.20;;
47715;SDS011;33476;50.984;3.538;2022-10-16T12:33:41;7.20;;;0.30;;
47715;SDS011;33476;50.984;3.538;2022-10-16T12:36:34;1.40;;;0.20;;
47715;SDS011;33476;50.984;3.538;2022-10-16T12:39:00;4.05;;;0.20;;
47715;SDS011;33476;50.984;3.538;2022-10-16T12:41:32;4.03;;;0.28;;
47715;SDS011;33476;50.984;3.538;2022-10-16T12:43:59;2.25;;;0.22;;
47715;SDS011;33476;50.984;3.538;2022-10-16T12:51:38;3.88;;;0.13;;
47715;SDS011;33476;50.984;3.538;2022-10-16T12:54:11;1.80;;;0.10;;
47715;SDS011;33476;50.984;3.538;2022-10-16T12:56:49;4.68;;;0.30;;
47715;SDS011;33476;50.984;3.538;2022-10-16T13:02:11;2.60;;;0.20;;
47715;SDS011;33476;50.984;3.538;2022-10-16T13:05:08;3.80;;;0.30;;
47715;SDS011;33476;50.984;3.538;2022-10-16T13:15:58;5.22;;;0.20;;
47715;SDS011;33476;50.984;3.538;2022-10-16T13:21:10;2.65;;;0.30;;
47715;SDS011;33476;50.984;3.538;2022-10-16T13:23:53;1.70;;;0.40;;
47715;SDS011;33476;50.984;3.538;2022-10-16T13:29:18;4.78;;;0.17;;
47715;SDS011;33476;50.984;3.538;2022-10-16T13:31:44;3.05;;;0.20;;
47715;SDS011;33476;50.984;3.538;2022-10-16T13:34:14;3.20;;;0.38;;
47715;SDS011;33476;50.984;3.538;2022-10-16T13:36:47;3.47;;;0.20;;
47715;SDS011;33476;50.984;3.538;2022-10-16T13:39:22;4.40;;;0.30;;
47715;SDS011;33476;50.984;3.538;2022-10-16T13:44:26;1.48;;;0.20;;
47715;SDS011;33476;50.984;3.538;2022-10-16T13:46:58;3.28;;;0.10;;
47715;SDS011;33476;50.984;3.538;2022-10-16T13:49:25;2.05;;;0.22;;
47715;SDS011;33476;50.984;3.538;2022-10-16T13:51:57;3.85;;;0.30;;
47715;SDS011;33476;50.984;3.538;2022-10-16T13:54:24;3.90;;;0.10;;
47715;SDS011;33476;50.984;3.538;2022-10-16T13:56:51;3.25;;;0.10;;
47715;SDS011;33476;50.984;3.538;2022-10-16T13:59:24;2.05;;;0.03;;
47715;SDS011;33476;50.984;3.538;2022-10-16T14:02:00;1.30;;;0.10;;
47715;SDS011;33476;50.984;3.538;2022-10-16T14:04:33;1.85;;;0.10;;
47715;SDS011;33476;50.984;3.538;2022-10-16T14:06:58;1.02;;;0.10;;
47715;SDS011;33476;50.984;3.538;2022-10-16T14:09:25;1.27;;;0.10;;
47715;SDS011;33476;50.984;3.538;2022-10-16T14:11:54;2.25;;;0.10;;
47715;SDS011;33476;50.984;3.538;2022-10-16T14:14:26;1.25;;;0.10;;
47715;SDS011;33476;50.984;3.538;2022-10-16T14:16:59;0.90;;;0.00;;
47715;SDS011;33476;50.984;3.538;2022-10-16T14:19:25;3.40;;;0.10;;
47715;SDS011;33476;50.984;3.538;2022-10-16T14:21:53;2.22;;;0.20;;
47715;SDS011;33476;50.984;3.538;2022-10-16T14:24:26;2.10;;;0.03;;
47715;SDS011;33476;50.984;3.538;2022-10-16T14:26:56;1.58;;;0.10;;
47715;SDS011;33476;50.984;3.538;2022-10-16T14:29:24;5.75;;;0.28;;
47715;SDS011;33476;50.984;3.538;2022-10-16T14:35:25;0.93;;;0.10;;
47715;SDS011;33476;50.984;3.538;2022-10-16T14:37:54;0.90;;;0.00;;
47715;SDS011;33476;50.984;3.538;2022-10-16T14:40:24;0.70;;;0.00;;
47715;SDS011;33476;50.984;3.538;2022-10-16T14:42:52;1.50;;;0.10;;
47715;SDS011;33476;50.984;3.538;2022-10-16T14:45:21;1.77;;;0.10;;
47715;SDS011;33476;50.984;3.538;2022-10-16T14:47:53;0.80;;;0.00;;
47715;SDS011;33476;50.984;3.538;2022-10-16T14:50:21;3.08;;;0.10;;
47715;SDS011;33476;50.984;3.538;2022-10-16T14:52:46;2.42;;;0.10;;
47715;SDS011;33476;50.984;3.538;2022-10-16T14:55:15;1.35;;;0.20;;
47715;SDS011;33476;50.984;3.538;2022-10-16T14:57:42;3.42;;;0.10;;
47715;SDS011;33476;50.984;3.538;2022-10-16T15:00:14;2.33;;;0.15;;
47715;SDS011;33476;50.984;3.538;2022-10-16T15:02:43;1.45;;;0.20;;
47715;SDS011;33476;50.984;3.538;2022-10-16T15:10:05;1.75;;;0.10;;
47715;SDS011;33476;50.984;3.538;2022-10-16T15:12:30;1.65;;;0.30;;
47715;SDS011;33476;50.984;3.538;2022-10-16T15:14:55;0.77;;;0.10;;
47715;SDS011;33476;50.984;3.538;2022-10-16T15:17:21;4.25;;;0.15;;
47715;SDS011;33476;50.984;3.538;2022-10-16T15:19:46;3.05;;;0.20;;
47715;SDS011;33476;50.984;3.538;2022-10-16T15:22:11;1.52;;;0.20;;
47715;SDS011;33476;50.984;3.538;2022-10-16T15:24:37;1.70;;;0.20;;
47715;SDS011;33476;50.984;3.538;2022-10-16T15:27:02;3.15;;;0.40;;
47715;SDS011;33476;50.984;3.538;2022-10-16T15:29:28;1.75;;;0.10;;
47715;SDS011;33476;50.984;3.538;2022-10-16T15:31:53;0.90;;;0.20;;
47715;SDS011;33476;50.984;3.538;2022-10-16T15:34:19;1.83;;;0.17;;
47715;SDS011;33476;50.984;3.538;2022-10-16T15:36:44;1.58;;;0.20;;
47715;SDS011;33476;50.984;3.538;2022-10-16T15:39:14;1.95;;;0.32;;
47715;SDS011;33476;50.984;3.538;2022-10-16T15:41:41;3.00;;;0.60;;
47715;SDS011;33476;50.984;3.538;2022-10-16T15:44:07;3.45;;;0.35;;
47715;SDS011;33476;50.984;3.538;2022-10-16T15:46:33;3.63;;;0.30;;
47715;SDS011;33476;50.984;3.538;2022-10-16T15:48:59;3.58;;;0.40;;
47715;SDS011;33476;50.984;3.538;2022-10-16T15:51:26;2.30;;;0.30;;
47715;SDS011;33476;50.984;3.538;2022-10-16T15:53:57;1.70;;;0.40;;
47715;SDS011;33476;50.984;3.538;2022-10-16T15:56:24;2.42;;;0.30;;
47715;SDS011;33476;50.984;3.538;2022-10-16T15:58:50;1.05;;;0.20;;
47715;SDS011;33476;50.984;3.538;2022-10-16T16:01:16;3.45;;;0.40;;
47715;SDS011;33476;50.984;3.538;2022-10-16T16:03:42;2.28;;;0.30;;
47715;SDS011;33476;50.984;3.538;2022-10-16T16:06:09;1.75;;;0.30;;
47715;SDS011;33476;50.984;3.538;2022-10-16T16:08:36;5.32;;;0.57;;
47715;SDS011;33476;50.984;3.538;2022-10-16T16:11:06;4.35;;;1.23;;
47715;SDS011;33476;50.984;3.538;2022-10-16T16:13:33;3.83;;;1.23;;
47715;SDS011;33476;50.984;3.538;2022-10-16T16:15:59;4.90;;;0.85;;
47715;SDS011;33476;50.984;3.538;2022-10-16T16:18:25;3.53;;;0.90;;
47715;SDS011;33476;50.984;3.538;2022-10-16T16:20:51;4.60;;;0.60;;
47715;SDS011;33476;50.984;3.538;2022-10-16T16:23:16;1.30;;;0.50;;
47715;SDS011;33476;50.984;3.538;2022-10-16T16:25:42;1.77;;;0.30;;
47715;SDS011;33476;50.984;3.538;2022-10-16T16:28:10;3.17;;;0.30;;
47715;SDS011;33476;50.984;3.538;2022-10-16T16:30:39;3.13;;;0.30;;
47715;SDS011;33476;50.984;3.538;2022-10-16T16:33:04;4.47;;;0.70;;
47715;SDS011;33476;50.984;3.538;2022-10-16T16:35:30;1.70;;;0.60;;
47715;SDS011;33476;50.984;3.538;2022-10-16T16:37:55;5.40;;;0.82;;
47715;SDS011;33476;50.984;3.538;2022-10-16T16:40:20;2.47;;;0.50;;
47715;SDS011;33476;50.984;3.538;2022-10-16T16:42:49;1.33;;;0.30;;
47715;SDS011;33476;50.984;3.538;2022-10-16T16:45:14;1.50;;;0.25;;
47715;SDS011;33476;50.984;3.538;2022-10-16T16:47:40;3.03;;;0.15;;
47715;SDS011;33476;50.984;3.538;2022-10-16T16:50:05;2.47;;;0.30;;
47715;SDS011;33476;50.984;3.538;2022-10-16T16:52:34;1.50;;;0.30;;
47715;SDS011;33476;50.984;3.538;2022-10-16T16:55:00;2.30;;;0.20;;
47715;SDS011;33476;50.984;3.538;2022-10-16T16:57:26;3.10;;;0.32;;
47715;SDS011;33476;50.984;3.538;2022-10-16T16:59:51;1.48;;;0.32;;
47715;SDS011;33476;50.984;3.538;2022-10-16T17:02:16;2.97;;;0.57;;
47715;SDS011;33476;50.984;3.538;2022-10-16T17:04:45;3.50;;;0.45;;
47715;SDS011;33476;50.984;3.538;2022-10-16T17:07:10;3.10;;;0.40;;
47715;SDS011;33476;50.984;3.538;2022-10-16T17:09:36;7.45;;;0.40;;
47715;SDS011;33476;50.984;3.538;2022-10-16T17:12:04;6.53;;;0.52;;
47715;SDS011;33476;50.984;3.538;2022-10-16T17:14:29;1.92;;;0.20;;
47715;SDS011;33476;50.984;3.538;2022-10-16T17:16:54;5.20;;;0.50;;